createdAt,value
2023-02-27T20:35:21.386Z,5.00
2023-02-27T20:36:21.324Z,5.90
2023-02-27T20:37:21.256Z,5.50
2023-02-27T20:38:21.193Z,5.30
2023-02-27T20:39:21.149Z,5.40
2023-02-27T20:40:21.075Z,5.40
2023-02-27T20:41:21.010Z,4.80
2023-02-27T20:42:21.129Z,6.90
2023-02-27T20:43:21.335Z,7.50
2023-02-27T20:44:20.852Z,4.90
2023-02-27T20:45:20.766Z,6.50
2023-02-27T20:46:20.760Z,5.90
2023-02-27T20:47:20.616Z,5.10
2023-02-27T20:48:20.528Z,4.40
2023-02-27T20:49:20.469Z,6.90
2023-02-27T20:50:20.418Z,6.70
2023-02-27T20:51:20.332Z,9.00
2023-02-27T20:52:20.262Z,8.00
2023-02-27T20:53:20.180Z,6.60
2023-02-27T20:54:20.428Z,6.80
2023-02-27T20:55:20.069Z,6.60
2023-02-27T20:56:19.990Z,8.80
2023-02-27T20:57:19.908Z,7.70
2023-02-27T20:58:19.842Z,8.30
2023-02-27T20:59:19.754Z,5.80
2023-02-27T21:00:19.713Z,6.70
2023-02-27T21:01:19.675Z,5.10
2023-02-27T21:02:19.566Z,6.00
2023-02-27T21:03:19.533Z,6.20
2023-02-27T21:04:19.488Z,6.10
2023-02-27T21:05:19.345Z,4.60
2023-02-27T21:06:19.279Z,6.80
2023-02-27T21:07:19.207Z,6.90
2023-02-27T21:08:19.124Z,5.80
2023-02-27T21:09:19.075Z,6.50
2023-02-27T21:10:19.023Z,6.00
2023-02-27T21:11:18.928Z,8.40
2023-02-27T21:12:18.884Z,6.80
2023-02-27T21:13:18.784Z,7.20
2023-02-27T21:14:18.714Z,8.10
2023-02-27T21:15:18.678Z,8.60
2023-02-27T21:16:18.642Z,8.30
2023-02-27T21:17:18.515Z,7.40
2023-02-27T21:18:18.468Z,6.90
2023-02-27T21:19:18.384Z,6.30
2023-02-27T21:20:18.347Z,7.60
2023-02-27T21:21:18.258Z,7.00
2023-02-27T21:22:18.188Z,6.50
2023-02-27T21:23:18.114Z,6.20
2023-02-27T21:24:18.038Z,7.50
2023-02-27T21:25:17.989Z,8.30
2023-02-27T21:26:17.973Z,5.90
2023-02-27T21:27:17.845Z,7.10
2023-02-27T21:28:17.797Z,6.50
2023-02-27T21:29:17.698Z,6.70
2023-02-27T21:30:17.651Z,8.40
2023-02-27T21:31:17.954Z,7.90
2023-02-27T21:32:17.876Z,6.50
2023-02-27T21:33:17.500Z,9.90
2023-02-27T21:34:17.712Z,10.30
2023-02-27T21:35:17.839Z,9.70
2023-02-27T21:36:18.006Z,9.90
2023-02-27T21:37:17.222Z,10.20
2023-02-27T21:38:17.042Z,9.70
2023-02-27T21:39:17.649Z,8.30
2023-02-27T21:40:17.691Z,7.30
2023-02-27T21:41:16.837Z,9.50
2023-02-27T21:42:17.260Z,8.10
2023-02-27T21:43:16.683Z,10.00
2023-02-27T21:44:16.644Z,9.80
2023-02-27T21:45:16.578Z,6.70
2023-02-27T21:46:16.542Z,7.50
2023-02-27T21:47:16.433Z,8.90
2023-02-27T21:48:16.448Z,8.00
2023-02-27T21:49:16.301Z,7.90
2023-02-27T21:50:16.237Z,11.30
2023-02-27T21:51:18.271Z,12.40
2023-02-27T21:52:17.076Z,11.10
2023-02-27T21:53:15.996Z,8.90
2023-02-27T21:54:15.931Z,11.80
2023-02-27T21:55:15.863Z,8.80
2023-02-27T21:56:15.867Z,10.60
2023-02-27T21:57:15.714Z,14.40
2023-02-27T21:58:15.645Z,12.10
2023-02-27T21:59:15.565Z,13.40
2023-02-27T22:00:15.495Z,13.70
2023-02-27T22:01:15.497Z,12.20
2023-02-27T22:02:15.382Z,12.90
2023-02-27T22:03:15.265Z,9.40
2023-02-27T22:04:15.183Z,6.80
2023-02-27T22:05:15.109Z,16.20
2023-02-27T22:06:15.030Z,8.00
2023-02-27T22:07:14.959Z,8.30
2023-02-27T22:08:14.878Z,10.00
2023-02-27T22:09:14.818Z,10.20
2023-02-27T22:10:14.728Z,24.80
2023-02-27T22:11:14.643Z,25.30
2023-02-27T22:12:16.108Z,18.70
2023-02-27T22:13:14.510Z,16.50
2023-02-27T22:14:14.454Z,22.50
2023-02-27T22:15:14.374Z,13.50
2023-02-27T22:16:14.404Z,9.60
2023-02-27T22:17:14.231Z,29.80
2023-02-27T22:18:14.158Z,27.30
2023-02-27T22:19:14.113Z,11.90
2023-02-27T22:20:14.050Z,9.40
2023-02-27T22:21:13.981Z,17.50
2023-02-27T22:22:13.912Z,8.50
2023-02-27T22:23:13.841Z,10.10
2023-02-27T22:24:13.784Z,20.60
2023-02-27T22:25:13.729Z,21.30
2023-02-27T22:26:13.661Z,14.30
2023-02-27T22:27:13.578Z,11.50
2023-02-27T22:28:13.514Z,14.50
2023-02-27T22:29:13.456Z,12.20
2023-02-27T22:30:13.414Z,9.50
2023-02-27T22:31:13.356Z,9.70
2023-02-27T22:32:13.266Z,10.30
2023-02-27T22:33:13.162Z,13.70
2023-02-27T22:34:13.109Z,16.00
2023-02-27T22:35:13.034Z,14.70
2023-02-27T22:36:13.094Z,15.60
2023-02-27T22:37:12.902Z,11.70
2023-02-27T22:38:12.889Z,10.50
2023-02-27T22:39:12.769Z,9.10
2023-02-27T22:40:12.704Z,8.20
2023-02-27T22:41:12.618Z,10.10
2023-02-27T22:42:12.547Z,8.50
2023-02-27T22:43:12.473Z,12.00
2023-02-27T22:44:12.432Z,10.30
2023-02-27T22:45:12.365Z,8.20
2023-02-27T22:46:12.400Z,11.70
2023-02-27T22:47:12.205Z,10.00
2023-02-27T22:48:12.161Z,9.60
2023-02-27T22:49:12.075Z,9.10
2023-02-27T22:50:12.021Z,10.80
2023-02-27T22:51:11.926Z,8.00
2023-02-27T22:52:11.854Z,11.90
2023-02-27T22:53:11.775Z,8.90
2023-02-27T22:54:11.707Z,12.30
2023-02-27T22:55:11.651Z,10.50
2023-02-27T22:56:11.642Z,10.70
2023-02-27T22:57:11.518Z,11.70
2023-02-27T22:58:11.423Z,10.40
2023-02-27T22:59:11.337Z,10.10
2023-02-27T23:00:11.302Z,12.10
2023-02-27T23:01:11.265Z,7.60
2023-02-27T23:02:11.188Z,10.30
2023-02-27T23:03:11.088Z,10.80
2023-02-27T23:04:11.113Z,9.40
2023-02-27T23:05:10.981Z,9.90
2023-02-27T23:06:10.891Z,9.70
2023-02-27T23:07:10.825Z,10.70
2023-02-27T23:08:10.777Z,10.60
2023-02-27T23:09:10.731Z,12.40
2023-02-27T23:10:10.658Z,11.80
2023-02-27T23:11:10.578Z,12.70
2023-02-27T23:12:10.531Z,9.30
2023-02-27T23:13:10.448Z,9.40
2023-02-27T23:14:10.419Z,8.30
2023-02-27T23:15:10.425Z,10.30
2023-02-27T23:16:10.337Z,8.00
2023-02-27T23:17:10.216Z,8.10
2023-02-27T23:18:10.172Z,9.10
2023-02-27T23:19:10.121Z,9.30
2023-02-27T23:20:10.053Z,9.50
2023-02-27T23:21:09.995Z,10.00
2023-02-27T23:22:09.936Z,10.10
2023-02-27T23:23:09.842Z,11.10
2023-02-27T23:24:09.795Z,10.10
2023-02-27T23:25:09.736Z,8.90
2023-02-27T23:26:09.669Z,9.60
2023-02-27T23:27:25.065Z,10.10
2023-02-27T23:28:10.548Z,12.30
2023-02-27T23:29:09.468Z,13.10
2023-02-27T23:30:09.437Z,11.10
2023-02-27T23:31:09.386Z,10.20
2023-02-27T23:32:09.517Z,10.20
2023-02-27T23:33:09.208Z,10.20
2023-02-27T23:34:09.168Z,9.80
2023-02-27T23:35:09.116Z,11.50
2023-02-27T23:36:09.040Z,9.60
2023-02-27T23:37:08.969Z,9.60
2023-02-27T23:38:08.910Z,9.00
2023-02-27T23:39:08.850Z,10.40
2023-02-27T23:40:08.781Z,9.00
2023-02-27T23:41:08.693Z,10.20
2023-02-27T23:42:08.636Z,8.70
2023-02-27T23:43:08.580Z,11.30
2023-02-27T23:44:08.507Z,9.30
2023-02-27T23:45:08.461Z,10.30
2023-02-27T23:46:08.481Z,9.30
2023-02-27T23:47:08.300Z,10.80
2023-02-27T23:48:08.256Z,10.20
2023-02-27T23:49:08.190Z,12.70
2023-02-27T23:50:08.163Z,9.60
2023-02-27T23:51:08.051Z,8.00
2023-02-27T23:52:08.015Z,10.80
2023-02-27T23:53:07.945Z,8.30
2023-02-27T23:54:07.882Z,11.30
2023-02-27T23:55:07.816Z,10.40
2023-02-27T23:56:07.808Z,12.10
2023-02-27T23:57:07.725Z,13.20
2023-02-27T23:58:07.606Z,9.80
2023-02-27T23:59:07.540Z,10.90
